Time;durP1;ratioP1;P1;durP2;ratioP2;P2;SDS_P1;SDS_P2;PMS_P1;PMS_P2;Temp;Humidity;BMP_temperature;BMP_pressure;BME280_temperature;BME280_humidity;BME280_pressure;Samples;Min_cycle;Max_cycle;Signal;HPM_P1;HPM_P2
2023/05/14 00:00:13;;;;;;;6.63;4.60;;;;;;;20.69;49.11;101875.09;5006789;28;20037;-71
2023/05/14 00:02:38;;;;;;;5.65;4.57;;;;;;;20.68;48.89;101870.78;5005756;28;20144;-72
2023/05/14 00:05:04;;;;;;;7.30;4.60;;;;;;;20.71;48.98;101872.31;5019759;28;20128;-72
2023/05/14 00:07:29;;;;;;;6.38;4.43;;;;;;;20.68;49.23;101861.97;5014006;28;20289;-72
2023/05/14 00:09:56;;;;;;;7.60;4.53;;;;;;;20.69;49.22;101872.44;5016390;28;20145;-73
2023/05/14 00:12:21;;;;;;;6.93;4.90;;;;;;;20.70;49.06;101862.72;5018367;28;20056;-73
2023/05/14 00:14:46;;;;;;;5.40;4.35;;;;;;;20.67;48.98;101857.66;5005094;28;20050;-73
2023/05/14 00:17:12;;;;;;;6.28;4.78;;;;;;;20.68;48.69;101861.97;5007051;28;20048;-72
2023/05/14 00:19:40;;;;;;;6.00;4.40;;;;;;;20.66;48.81;101856.78;5018664;28;20091;-72
2023/05/14 00:22:06;;;;;;;7.13;4.70;;;;;;;20.65;49.24;101858.59;5021580;28;20466;-73
2023/05/14 00:24:32;;;;;;;7.40;4.50;;;;;;;20.63;49.25;101852.56;5017944;28;20036;-72
2023/05/14 00:26:58;;;;;;;7.13;4.55;;;;;;;20.65;49.10;101855.94;5021339;28;20089;-71
2023/05/14 00:29:23;;;;;;;7.55;5.05;;;;;;;20.63;49.18;101855.19;5008785;28;20577;-72
2023/05/14 00:31:48;;;;;;;6.05;4.90;;;;;;;20.63;49.06;101854.34;5018030;28;20122;-71
2023/05/14 00:34:13;;;;;;;6.10;4.50;;;;;;;20.62;49.07;101848.19;5013568;28;20504;-73
2023/05/14 00:36:39;;;;;;;6.53;4.90;;;;;;;20.65;48.82;101853.31;5018512;28;20029;-71
2023/05/14 00:39:04;;;;;;;5.67;4.60;;;;;;;20.62;48.78;101839.44;5009784;28;20838;-72
2023/05/14 00:41:29;;;;;;;6.18;4.47;;;;;;;20.65;49.26;101850.66;5004804;28;20322;-72
2023/05/14 00:43:54;;;;;;;5.80;4.70;;;;;;;20.62;48.91;101834.97;5006205;28;20038;-70
2023/05/14 00:46:21;;;;;;;5.88;4.72;;;;;;;20.64;49.30;101845.47;5010260;28;20045;-71
2023/05/14 00:48:46;;;;;;;7.03;4.68;;;;;;;20.60;48.88;101833.38;5013242;28;20041;-72
2023/05/14 00:51:12;;;;;;;6.45;4.70;;;;;;;20.62;49.20;101837.59;5013323;28;20051;-73
2023/05/14 00:53:38;;;;;;;6.50;4.93;;;;;;;20.60;48.79;101836.88;5013477;28;20037;-72
2023/05/14 00:56:04;;;;;;;6.93;5.10;;;;;;;20.58;49.09;101825.56;5020237;28;20297;-72
2023/05/14 00:58:29;;;;;;;5.40;4.50;;;;;;;20.60;49.13;101822.78;5021621;28;20473;-72
2023/05/14 01:00:55;;;;;;;6.65;4.85;;;;;;;20.57;48.94;101823.88;5011231;28;20041;-73
2023/05/14 01:03:20;;;;;;;6.38;4.97;;;;;;;20.60;49.02;101828.94;5015023;28;20456;-71
2023/05/14 01:06:05;;;;;;;6.18;5.00;;;;;;;20.58;48.94;101836.16;5011539;28;20444;-72
2023/05/14 01:08:45;;;;;;;6.68;4.72;;;;;;;20.59;48.65;101831.72;5003999;28;20038;-72
2023/05/14 01:11:18;;;;;;;6.72;4.72;;;;;;;20.58;49.02;101825.56;5009230;28;20098;-72
2023/05/14 01:13:52;;;;;;;6.72;4.95;;;;;;;20.60;48.98;101830.72;5015958;28;20041;-72
2023/05/14 01:16:19;;;;;;;5.97;4.80;;;;;;;20.58;48.99;101830.00;5020465;28;20040;-71
2023/05/14 01:18:47;;;;;;;6.97;5.03;;;;;;;20.58;48.87;101828.19;5010601;28;20030;-72
2023/05/14 01:21:41;;;;;;;6.30;5.00;;;;;;;20.56;48.96;101824.84;5016428;28;20041;-72
2023/05/14 01:24:07;;;;;;;6.57;5.05;;;;;;;20.56;48.85;101824.00;5010149;28;20157;-71
2023/05/14 01:26:34;;;;;;;5.97;4.80;;;;;;;20.55;48.96;101820.50;5006617;28;20490;-71
2023/05/14 01:29:10;;;;;;;8.07;5.05;;;;;;;20.56;49.01;101830.13;5007696;28;20037;-73
2023/05/14 01:31:39;;;;;;;7.15;4.82;;;;;;;20.55;48.84;101824.94;5011121;28;20062;-72
2023/05/14 01:34:05;;;;;;;7.80;5.53;;;;;;;20.55;48.81;101825.78;5009820;28;20371;-71
2023/05/14 01:36:31;;;;;;;6.65;5.00;;;;;;;20.54;48.84;101816.16;5014040;28;20038;-73
2023/05/14 01:38:59;;;;;;;6.40;5.30;;;;;;;20.53;48.98;101811.81;5014734;28;20132;-73
2023/05/14 01:41:25;;;;;;;9.32;5.60;;;;;;;20.54;48.97;101813.53;5007038;28;20029;-72
2023/05/14 01:43:51;;;;;;;6.07;5.10;;;;;;;20.52;48.87;101810.16;5011652;28;20124;-71
2023/05/14 01:46:19;;;;;;;5.90;5.03;;;;;;;20.52;48.76;101810.16;5013446;28;20042;-71
2023/05/14 01:48:45;;;;;;;6.70;4.93;;;;;;;20.52;48.89;101815.44;5012536;28;20044;-71
2023/05/14 01:51:13;;;;;;;7.05;5.20;;;;;;;20.52;48.57;101811.94;5019534;28;20112;-72
2023/05/14 01:53:38;;;;;;;6.40;5.25;;;;;;;20.51;48.65;101816.41;5018399;28;20071;-73
2023/05/14 01:56:04;;;;;;;7.60;5.50;;;;;;;20.50;48.72;101814.72;5014072;28;20077;-71
2023/05/14 01:58:29;;;;;;;6.95;5.50;;;;;;;20.52;48.83;101822.53;5015413;28;20068;-71
2023/05/14 02:00:54;;;;;;;7.00;5.20;;;;;;;20.52;48.70;101820.75;5014110;28;20033;-72
2023/05/14 02:03:20;;;;;;;6.07;5.25;;;;;;;20.50;48.72;101808.56;5016694;28;20037;-71
2023/05/14 02:05:45;;;;;;;7.50;5.35;;;;;;;20.50;48.58;101806.75;5023681;28;20397;-72
2023/05/14 02:08:11;;;;;;;6.88;5.20;;;;;;;20.49;48.95;101807.75;5019438;28;20124;-72
2023/05/14 02:10:36;;;;;;;7.55;5.53;;;;;;;20.50;48.52;101809.41;5019963;28;20040;-71
2023/05/14 02:13:02;;;;;;;6.47;5.38;;;;;;;20.50;48.96;101809.41;5016712;28;20044;-71
2023/05/14 02:15:27;;;;;;;7.65;5.53;;;;;;;20.47;48.80;101796.41;5014967;28;20061;-72
2023/05/14 02:17:53;;;;;;;6.95;5.57;;;;;;;20.48;48.63;101803.41;5013418;28;20030;-72
2023/05/14 02:20:18;;;;;;;6.53;5.60;;;;;;;20.48;48.49;101801.56;5023506;28;20429;-72
2023/05/14 02:22:44;;;;;;;7.07;5.82;;;;;;;20.50;48.77;101800.63;5014875;28;20266;-71
2023/05/14 02:25:10;;;;;;;7.18;5.80;;;;;;;20.47;49.06;101801.69;5014737;28;20033;-72
2023/05/14 02:27:35;;;;;;;6.47;5.38;;;;;;;20.48;48.70;101803.41;5012669;28;20025;-71
2023/05/14 02:30:00;;;;;;;8.45;5.70;;;;;;;20.48;48.46;101806.03;5016035;28;20389;-72
2023/05/14 02:32:26;;;;;;;8.27;5.40;;;;;;;20.46;48.56;101805.31;5017164;28;20029;-72
2023/05/14 02:34:52;;;;;;;6.25;5.30;;;;;;;20.46;48.91;101800.88;5015720;28;20037;-72
2023/05/14 02:37:17;;;;;;;7.43;5.67;;;;;;;20.44;48.50;101793.97;5017132;28;20049;-72
2023/05/14 02:39:42;;;;;;;7.05;5.60;;;;;;;20.44;48.65;101791.34;5023089;28;20270;-72
2023/05/14 02:42:07;;;;;;;7.93;5.70;;;;;;;20.44;48.78;101796.63;5010444;28;20100;-72
2023/05/14 02:44:33;;;;;;;7.30;5.40;;;;;;;20.45;48.92;101787.75;5018521;28;20263;-73
2023/05/14 02:46:58;;;;;;;7.13;5.53;;;;;;;20.44;48.57;101792.19;5008980;28;20026;-73
2023/05/14 02:49:23;;;;;;;7.45;5.57;;;;;;;20.42;48.57;101788.81;5009975;28;20033;-73
2023/05/14 02:51:49;;;;;;;7.57;5.80;;;;;;;20.44;48.51;101796.63;5018034;28;20037;-73
2023/05/14 02:54:15;;;;;;;7.45;5.45;;;;;;;20.43;48.97;101795.81;5011774;28;20271;-73
2023/05/14 02:56:40;;;;;;;7.40;5.68;;;;;;;20.44;48.67;101807.22;5015690;28;20072;-72
2023/05/14 02:59:06;;;;;;;6.13;5.38;;;;;;;20.44;48.86;101804.56;5011431;28;20065;-73
2023/05/14 03:01:31;;;;;;;8.57;5.72;;;;;;;20.43;48.51;101805.56;5006730;28;20389;-71
2023/05/14 03:03:56;;;;;;;7.28;5.60;;;;;;;20.43;48.77;101806.38;5018322;28;20040;-72
2023/05/14 03:06:22;;;;;;;7.72;5.70;;;;;;;20.42;48.90;101806.50;5016071;28;20036;-72
2023/05/14 03:08:47;;;;;;;7.60;5.70;;;;;;;20.43;48.79;101794.97;5012288;28;20038;-72
2023/05/14 03:11:12;;;;;;;7.10;5.80;;;;;;;20.42;48.76;101799.41;5009630;28;20069;-72
2023/05/14 03:13:38;;;;;;;6.78;5.80;;;;;;;20.42;48.83;101793.28;5011825;28;20053;-71
2023/05/14 03:16:03;;;;;;;6.72;5.60;;;;;;;20.40;49.05;101788.09;5007003;28;20379;-72
2023/05/14 03:18:29;;;;;;;7.03;5.35;;;;;;;20.42;48.92;101787.97;5012529;28;20495;-72
2023/05/14 03:20:54;;;;;;;6.97;5.53;;;;;;;20.40;48.71;101790.75;5015682;28;20041;-71
2023/05/14 03:23:20;;;;;;;7.20;5.55;;;;;;;20.38;48.78;101784.72;5010766;28;20033;-72
2023/05/14 03:25:45;;;;;;;7.35;5.50;;;;;;;20.36;48.77;101776.06;5016369;28;20371;-72
2023/05/14 03:28:10;;;;;;;10.05;6.20;;;;;;;20.38;48.63;101778.59;5011922;28;20073;-73
2023/05/14 03:30:36;;;;;;;7.65;5.88;;;;;;;20.39;48.52;101770.50;5008204;28;20030;-72
2023/05/14 03:33:01;;;;;;;7.40;5.78;;;;;;;20.39;48.54;101770.50;5005465;28;20555;-73
2023/05/14 03:35:26;;;;;;;7.32;6.10;;;;;;;20.36;48.49;101757.53;5013755;28;20029;-71
2023/05/14 03:37:51;;;;;;;7.90;6.00;;;;;;;20.37;48.55;101758.38;5019398;28;20040;-71
2023/05/14 03:40:17;;;;;;;7.22;5.68;;;;;;;20.38;48.46;101782.06;5010977;28;20345;-72
2023/05/14 03:42:42;;;;;;;8.70;6.10;;;;;;;20.35;48.74;101773.53;5020539;28;20040;-71
2023/05/14 03:45:08;;;;;;;8.38;6.70;;;;;;;20.37;48.66;101774.25;5008932;28;20044;-72
2023/05/14 03:47:33;;;;;;;9.07;6.60;;;;;;;20.36;48.53;101775.19;5015544;28;20385;-72
2023/05/14 03:49:59;;;;;;;7.40;5.90;;;;;;;20.36;48.52;101780.50;5018058;28;20045;-71
2023/05/14 03:52:24;;;;;;;7.80;6.00;;;;;;;20.36;48.62;101775.19;5012961;28;20255;-72
2023/05/14 03:54:49;;;;;;;6.90;5.70;;;;;;;20.34;48.46;101767.38;5018830;28;20282;-72
2023/05/14 03:57:14;;;;;;;7.10;6.00;;;;;;;20.36;48.52;101772.56;5018234;28;20067;-72
2023/05/14 03:59:40;;;;;;;7.40;6.00;;;;;;;20.36;48.70;101775.19;5013140;28;20070;-72
2023/05/14 04:02:06;;;;;;;8.17;6.33;;;;;;;20.35;48.57;101781.47;5016873;28;20043;-72
2023/05/14 04:04:31;;;;;;;8.70;6.20;;;;;;;20.32;48.31;101776.41;5013223;28;20697;-72
2023/05/14 04:06:56;;;;;;;7.85;6.07;;;;;;;20.34;48.69;101766.53;5018815;28;20038;-73
2023/05/14 04:09:22;;;;;;;8.63;6.15;;;;;;;20.33;48.52;101770.13;5012172;28;20067;-73
2023/05/14 04:11:47;;;;;;;7.85;6.10;;;;;;;20.30;48.49;101765.94;5011664;28;20057;-72
2023/05/14 04:14:13;;;;;;;7.47;5.68;;;;;;;20.29;48.63;101761.59;5010407;28;20505;-73
2023/05/14 04:16:38;;;;;;;7.35;5.78;;;;;;;20.30;47.98;101761.47;5007825;28;20034;-72
2023/05/14 04:19:04;;;;;;;8.32;6.18;;;;;;;20.32;48.59;101765.81;5013288;28;20539;-73
2023/05/14 04:21:30;;;;;;;8.90;6.85;;;;;;;20.30;48.64;101766.78;5016339;28;20484;-72
2023/05/14 04:23:55;;;;;;;7.15;6.40;;;;;;;20.31;48.45;101767.59;5012723;28;20094;-73
2023/05/14 04:26:20;;;;;;;6.90;5.78;;;;;;;20.32;48.38;101768.47;5015463;28;20029;-72
2023/05/14 04:28:45;;;;;;;7.50;6.15;;;;;;;20.30;48.63;101763.28;5014884;28;20033;-71
2023/05/14 04:31:11;;;;;;;9.35;6.55;;;;;;;20.30;48.15;101761.47;5010025;28;20030;-72
2023/05/14 04:33:36;;;;;;;7.80;6.43;;;;;;;20.30;48.51;101765.94;5014219;28;20196;-71
2023/05/14 04:36:01;;;;;;;8.27;5.83;;;;;;;20.28;48.77;101760.75;5011673;28;20429;-73
2023/05/14 04:38:27;;;;;;;8.70;6.70;;;;;;;20.28;48.51;101767.84;5014541;28;20289;-71
2023/05/14 04:40:52;;;;;;;8.20;6.00;;;;;;;20.26;48.47;101765.31;5011969;28;20038;-72
2023/05/14 04:43:17;;;;;;;9.77;6.50;;;;;;;20.29;48.40;101766.88;5012462;28;21063;-73
2023/05/14 04:45:43;;;;;;;7.63;6.30;;;;;;;20.27;48.35;101763.53;5014400;28;20034;-73
2023/05/14 04:48:08;;;;;;;7.72;6.25;;;;;;;20.27;48.28;101769.66;5013458;28;20477;-72
2023/05/14 04:50:33;;;;;;;9.30;6.20;;;;;;;20.29;48.07;101769.53;5012681;28;20440;-73
2023/05/14 04:52:59;;;;;;;9.23;6.38;;;;;;;20.25;48.58;101761.00;5010665;28;20270;-73
2023/05/14 04:55:25;;;;;;;7.22;6.00;;;;;;;20.27;48.44;101766.16;5014201;28;20525;-72
2023/05/14 04:57:50;;;;;;;7.35;6.10;;;;;;;20.26;48.60;101769.75;5013612;28;20132;-73
2023/05/14 05:00:16;;;;;;;9.25;6.20;;;;;;;20.26;48.33;101769.75;5014397;28;20037;-73
2023/05/14 05:02:41;;;;;;;8.20;6.15;;;;;;;20.19;48.12;101761.44;5018901;28;20095;-72
2023/05/14 05:05:07;;;;;;;7.05;5.93;;;;;;;20.25;48.32;101771.59;5013914;28;20025;-73
2023/05/14 05:07:33;;;;;;;8.15;6.20;;;;;;;20.24;48.14;101769.03;5016808;28;20029;-72
2023/05/14 05:09:59;;;;;;;8.45;6.22;;;;;;;20.25;48.14;101776.88;5013610;28;20458;-72
2023/05/14 05:12:24;;;;;;;8.63;5.80;;;;;;;20.25;48.39;101783.94;5015049;28;20060;-72
2023/05/14 05:14:50;;;;;;;8.65;6.25;;;;;;;20.24;48.22;101782.28;5013712;28;20541;-71
2023/05/14 05:17:15;;;;;;;8.63;6.10;;;;;;;20.25;48.57;101773.38;5012535;28;20397;-71
2023/05/14 05:19:41;;;;;;;9.32;6.35;;;;;;;20.24;48.70;101779.63;5015538;28;20030;-71
2023/05/14 05:22:06;;;;;;;8.95;5.57;;;;;;;20.23;48.15;101785.88;5010425;28;20091;-71
2023/05/14 05:24:31;;;;;;;8.40;6.18;;;;;;;20.22;48.29;101786.81;5021840;28;20500;-72
2023/05/14 05:26:56;;;;;;;6.82;5.78;;;;;;;20.22;48.30;101792.13;5022678;28;20152;-71
2023/05/14 05:29:23;;;;;;;7.57;6.25;;;;;;;20.21;48.46;101786.00;5021296;28;20393;-72
2023/05/14 05:31:48;;;;;;;8.43;6.10;;;;;;;20.22;48.56;101784.19;5017841;28;20061;-72
2023/05/14 05:34:14;;;;;;;8.25;6.10;;;;;;;20.19;48.46;101781.78;5018353;28;20053;-72
2023/05/14 05:36:40;;;;;;;7.10;5.20;;;;;;;20.15;48.42;101782.97;5018847;28;20034;-72
2023/05/14 05:39:05;;;;;;;7.35;5.30;;;;;;;20.15;48.66;101794.38;5011695;28;20092;-72
2023/05/14 05:41:30;;;;;;;7.55;5.50;;;;;;;20.13;48.92;101784.91;5016092;28;20034;-73
2023/05/14 05:43:56;;;;;;;7.80;5.07;;;;;;;20.13;48.62;101782.25;5019852;28;21106;-73
2023/05/14 05:46:21;;;;;;;7.97;5.45;;;;;;;20.15;48.84;101785.63;5016984;28;20041;-73
2023/05/14 05:48:46;;;;;;;6.60;5.35;;;;;;;20.11;48.78;101777.06;5017783;28;20500;-72
2023/05/14 05:51:12;;;;;;;7.60;5.07;;;;;;;20.09;48.57;101773.66;5016538;28;20037;-73
2023/05/14 05:53:37;;;;;;;9.20;5.30;;;;;;;20.12;48.65;101776.09;5017714;28;20055;-71
2023/05/14 05:56:02;;;;;;;7.20;5.35;;;;;;;20.20;48.83;101789.63;5022146;28;20479;-72
2023/05/14 05:58:28;;;;;;;6.82;5.50;;;;;;;20.19;48.63;101789.72;5014058;28;20150;-72
2023/05/14 06:00:54;;;;;;;7.22;5.10;;;;;;;20.20;48.69;101789.63;5010043;28;20033;-72
2023/05/14 06:03:19;;;;;;;6.78;5.60;;;;;;;20.19;48.73;101795.03;5014790;28;20544;-72
2023/05/14 06:05:45;;;;;;;7.18;5.47;;;;;;;20.20;48.83;101800.19;5019749;28;20060;-72
2023/05/14 06:08:10;;;;;;;6.30;5.03;;;;;;;20.12;48.61;101789.31;5015706;28;20029;-72
2023/05/14 06:10:36;;;;;;;7.85;5.22;;;;;;;20.18;48.68;101798.63;5017283;28;20406;-73
2023/05/14 06:13:01;;;;;;;8.80;5.47;;;;;;;20.16;49.07;101801.38;5022121;28;20103;-74
2023/05/14 06:15:27;;;;;;;7.32;5.13;;;;;;;20.20;48.85;101802.84;5014149;28;20068;-72
2023/05/14 06:17:52;;;;;;;7.18;5.22;;;;;;;20.18;49.06;101796.81;5009893;28;20069;-71
2023/05/14 06:20:18;;;;;;;6.90;5.43;;;;;;;20.22;48.93;101802.69;5017468;28;20087;-71
2023/05/14 06:22:43;;;;;;;7.05;5.32;;;;;;;20.20;48.50;101813.44;5013771;28;20258;-72
2023/05/14 06:25:09;;;;;;;6.78;5.22;;;;;;;20.18;48.74;101812.69;5010565;28;20541;-71
2023/05/14 06:27:34;;;;;;;8.65;5.22;;;;;;;20.15;48.74;101812.09;5017483;28;20146;-74
2023/05/14 06:30:00;;;;;;;7.47;5.20;;;;;;;20.17;48.69;101810.16;5019733;28;20470;-72
2023/05/14 06:32:25;;;;;;;6.53;4.70;;;;;;;20.25;48.55;101811.28;5019324;28;20048;-72
2023/05/14 06:34:50;;;;;;;7.05;5.07;;;;;;;20.27;48.50;101817.28;5020568;28;20025;-72
2023/05/14 06:37:16;;;;;;;6.40;5.10;;;;;;;20.31;48.72;101815.25;5022040;28;20045;-70
2023/05/14 06:39:48;;;;;;;7.18;5.20;;;;;;;20.33;48.83;101821.28;5015150;28;20271;-72
2023/05/14 06:42:16;;;;;;;12.43;4.90;;;;;;;20.33;48.84;101821.28;5013156;28;20037;-69
2023/05/14 06:44:42;;;;;;;12.23;5.93;;;;;;;20.31;48.97;101815.25;5010222;28;20042;-71
2023/05/14 06:47:08;;;;;;;8.02;4.97;;;;;;;20.23;49.69;101813.19;5016607;28;20061;-68
2023/05/14 06:49:34;;;;;;;7.90;5.20;;;;;;;20.20;49.64;101810.78;5013313;28;20056;-71
2023/05/14 06:52:00;;;;;;;5.78;4.88;;;;;;;20.16;50.11;101808.47;5014251;28;20041;-70
2023/05/14 06:54:25;;;;;;;7.03;5.57;;;;;;;20.16;50.00;101808.47;5015405;28;20041;-72
2023/05/14 06:56:50;;;;;;;6.63;5.32;;;;;;;20.20;49.86;101805.50;5017437;28;20041;-71
2023/05/14 06:59:16;;;;;;;7.65;5.38;;;;;;;20.30;49.86;101806.47;5015671;28;20110;-72
2023/05/14 07:01:41;;;;;;;8.77;5.28;;;;;;;20.37;49.58;101804.19;5014063;28;20045;-73
2023/05/14 07:04:06;;;;;;;8.00;5.03;;;;;;;20.43;49.23;101810.84;5011220;28;20052;-73
2023/05/14 07:06:32;;;;;;;8.23;5.50;;;;;;;20.42;49.79;101806.50;5012258;28;20037;-71
2023/05/14 07:08:58;;;;;;;9.38;5.20;;;;;;;20.46;49.71;101810.63;5016904;28;20119;-71
2023/05/14 07:11:23;;;;;;;8.65;5.00;;;;;;;20.47;49.72;101805.22;5007806;28;20476;-74
2023/05/14 07:13:48;;;;;;;7.85;5.32;;;;;;;20.47;49.67;101799.03;5015804;28;20080;-72
2023/05/14 07:16:14;;;;;;;7.45;5.38;;;;;;;20.46;49.61;101798.22;5012022;28;20037;-75
2023/05/14 07:18:39;;;;;;;8.77;4.95;;;;;;;20.47;49.77;101796.41;5018635;28;20037;-73
2023/05/14 07:21:05;;;;;;;8.27;5.00;;;;;;;20.49;49.93;101805.09;5019942;28;20052;-72
2023/05/14 07:23:31;;;;;;;7.00;4.82;;;;;;;20.48;50.10;101801.56;5007580;28;20029;-72
2023/05/14 07:25:57;;;;;;;7.57;5.38;;;;;;;20.48;50.39;101806.88;5006903;28;20171;-71
2023/05/14 07:28:22;;;;;;;9.37;5.33;;;;;;;20.47;50.15;101807.84;5005121;28;20426;-70
2023/05/14 07:30:47;;;;;;;7.77;5.87;;;;;;;20.48;50.39;101806.03;5021607;28;20263;-71
2023/05/14 07:33:12;;;;;;;6.90;5.10;;;;;;;20.47;50.44;101801.69;5017306;28;21243;-71
2023/05/14 07:35:38;;;;;;;6.28;4.85;;;;;;;20.49;50.55;101807.75;5012049;28;20287;-71
2023/05/14 07:38:04;;;;;;;6.13;5.22;;;;;;;20.51;50.42;101807.63;5010345;28;20847;-71
2023/05/14 07:40:30;;;;;;;7.93;5.70;;;;;;;20.52;50.12;101811.94;5009147;28;20021;-73
2023/05/14 07:42:55;;;;;;;7.85;5.18;;;;;;;20.53;50.60;101816.28;5004608;28;20053;-73
2023/05/14 07:45:20;;;;;;;7.72;5.65;;;;;;;20.51;50.36;101815.56;5016401;28;20053;-72
2023/05/14 07:47:46;;;;;;;9.63;5.38;;;;;;;20.48;50.53;101804.22;5012048;28;20029;-72
2023/05/14 07:50:11;;;;;;;8.35;5.55;;;;;;;20.50;50.44;101814.72;5011752;28;20033;-74
2023/05/14 07:52:36;;;;;;;7.72;4.90;;;;;;;20.50;50.54;101809.41;5011865;28;20060;-71
2023/05/14 07:55:02;;;;;;;6.55;5.45;;;;;;;20.51;50.44;101802.31;5019159;28;20040;-72
2023/05/14 07:57:28;;;;;;;7.72;6.00;;;;;;;20.54;50.69;101802.94;5010026;28;20040;-71
2023/05/14 07:59:53;;;;;;;8.70;5.90;;;;;;;20.54;50.47;101794.16;5005536;28;20034;-69
2023/05/14 08:02:18;;;;;;;8.25;5.63;;;;;;;20.51;50.76;101791.75;5016760;28;20049;-71
2023/05/14 08:04:44;;;;;;;10.13;5.13;;;;;;;20.46;50.98;101786.78;5012101;28;20057;-71
2023/05/14 08:07:10;;;;;;;7.45;5.43;;;;;;;20.46;50.94;101794.72;5014969;28;20037;-71
2023/05/14 08:09:35;;;;;;;8.40;5.75;;;;;;;20.43;51.07;101795.81;5011996;28;20033;-72
2023/05/14 08:12:00;;;;;;;7.85;5.13;;;;;;;20.44;50.89;101792.19;5004157;28;20036;-73
2023/05/14 08:14:26;;;;;;;8.38;5.35;;;;;;;20.49;50.88;101805.09;5020744;28;20489;-73
2023/05/14 08:16:51;;;;;;;6.97;5.20;;;;;;;20.52;51.17;101790.75;5013118;28;20492;-72
2023/05/14 08:19:17;;;;;;;9.75;5.32;;;;;;;20.52;50.67;101782.81;5009922;28;20044;-72
2023/05/14 08:21:42;;;;;;;9.93;5.78;;;;;;;20.52;50.87;101783.69;5017611;28;20055;-72
2023/05/14 08:24:08;;;;;;;7.65;4.95;;;;;;;20.50;50.96;101798.81;5012194;28;20053;-70
2023/05/14 08:26:33;;;;;;;10.37;5.70;;;;;;;20.48;51.07;101793.63;5016236;28;20044;-71
2023/05/14 08:28:58;;;;;;;8.50;5.23;;;;;;;20.53;50.63;101793.28;5012034;28;20289;-71
2023/05/14 08:31:23;;;;;;;9.90;4.95;;;;;;;20.53;50.47;101795.94;5007260;28;20294;-71
2023/05/14 08:33:49;;;;;;;9.55;5.45;;;;;;;20.53;50.57;101790.63;5016218;28;20033;-71
2023/05/14 08:36:15;;;;;;;7.30;5.38;;;;;;;20.57;50.84;101788.59;5018187;28;20095;-70
2023/05/14 08:38:41;;;;;;;7.10;5.47;;;;;;;20.54;50.85;101783.56;5009666;28;20552;-69
2023/05/14 08:41:07;;;;;;;11.13;5.40;;;;;;;20.55;50.46;101783.41;5006567;28;20144;-70
2023/05/14 08:44:01;;;;;;;6.05;4.78;;;;;;;20.57;50.46;101781.50;5010765;28;20047;-69
2023/05/14 08:46:29;;;;;;;6.13;4.63;;;;;;;20.64;50.34;101779.25;4997238;28;20041;-71
2023/05/14 08:48:59;;;;;;;6.20;5.05;;;;;;;20.66;50.13;101772.03;5011201;28;20738;-70
2023/05/14 08:51:26;;;;;;;9.13;4.95;;;;;;;20.64;49.98;101763.38;5012818;28;20014;-72
2023/05/14 08:53:51;;;;;;;8.50;5.25;;;;;;;20.67;50.18;101763.13;5020346;28;20030;-70
2023/05/14 08:56:18;;;;;;;9.48;5.47;;;;;;;20.65;50.45;101771.19;5011537;28;20422;-74
2023/05/14 08:58:43;;;;;;;7.63;5.20;;;;;;;20.62;50.69;101762.63;5009906;28;20038;-74
2023/05/14 09:01:08;;;;;;;7.85;5.45;;;;;;;20.68;50.17;101769.25;5012105;28;20529;-74
2023/05/14 09:03:35;;;;;;;13.90;4.87;;;;;;;20.71;50.23;101767.25;5007288;28;20034;-69
2023/05/14 09:06:01;;;;;;;8.50;4.70;;;;;;;20.70;50.76;101756.75;5006218;28;20338;-69
2023/05/14 09:08:26;;;;;;;8.95;4.97;;;;;;;20.74;50.49;101759.03;5015244;28;20041;-68
2023/05/14 09:10:51;;;;;;;8.02;4.95;;;;;;;20.76;50.57;101758.91;5010652;28;20034;-71
2023/05/14 09:13:17;;;;;;;6.90;4.57;;;;;;;20.78;50.58;101754.34;5005995;28;20048;-70
2023/05/14 09:15:42;;;;;;;7.70;4.57;;;;;;;20.76;50.51;101746.53;5008076;28;20279;-70
2023/05/14 09:18:08;;;;;;;6.10;4.18;;;;;;;20.78;50.30;101747.25;5015166;28;20033;-71
2023/05/14 09:20:33;;;;;;;6.28;4.88;;;;;;;20.79;50.53;101746.28;5017877;28;20113;-70
2023/05/14 09:23:00;;;;;;;6.35;4.50;;;;;;;20.79;50.17;101741.00;5006842;28;20595;-70
2023/05/14 09:25:27;;;;;;;8.43;4.53;;;;;;;20.84;50.33;101743.28;5011438;28;20122;-69
2023/05/14 09:27:53;;;;;;;8.02;4.80;;;;;;;20.87;50.50;101744.81;5012223;28;20049;-68
2023/05/14 09:30:19;;;;;;;5.22;4.60;;;;;;;20.89;50.23;101737.63;5019262;28;20555;-70
2023/05/14 09:32:48;;;;;;;7.13;4.30;;;;;;;20.89;50.32;101735.81;5009293;28;20064;-67
2023/05/14 09:35:17;;;;;;;7.78;4.75;;;;;;;20.88;50.09;101739.41;5010273;28;20359;-73
2023/05/14 09:37:44;;;;;;;8.50;4.65;;;;;;;20.82;50.88;101732.81;5015277;28;20116;-71
2023/05/14 09:40:11;;;;;;;8.43;4.60;;;;;;;20.83;50.67;101739.75;5020287;28;20033;-72
2023/05/14 09:42:37;;;;;;;7.00;4.65;;;;;;;20.84;50.41;101737.97;5015222;28;20117;-70
2023/05/14 09:45:03;;;;;;;6.53;4.43;;;;;;;20.87;50.71;101737.75;5020604;28;20036;-70
2023/05/14 09:47:29;;;;;;;6.43;4.22;;;;;;;20.89;50.67;101730.50;5012852;28;20034;-70
2023/05/14 09:49:55;;;;;;;6.25;4.63;;;;;;;20.89;50.70;101730.50;5005631;28;20038;-70
2023/05/14 09:52:22;;;;;;;6.97;4.22;;;;;;;20.90;50.59;101726.88;5009224;28;20033;-70
2023/05/14 09:54:50;;;;;;;6.22;4.32;;;;;;;20.92;50.34;101732.03;5013088;28;20087;-72
2023/05/14 09:57:16;;;;;;;9.40;4.38;;;;;;;21.00;50.30;101735.78;5011221;28;20473;-69
2023/05/14 09:59:41;;;;;;;8.60;4.28;;;;;;;21.01;50.15;101726.03;5010058;28;20100;-70
2023/05/14 10:02:18;;;;;;;6.20;4.50;;;;;;;21.02;50.07;101717.13;5005052;28;20029;-67
2023/05/14 10:04:43;;;;;;;7.30;4.22;;;;;;;21.01;50.02;101721.59;5017369;28;20891;-72
2023/05/14 10:07:09;;;;;;;5.30;4.05;;;;;;;21.03;49.87;101726.75;5010156;28;20034;-68
2023/05/14 10:09:38;;;;;;;6.75;4.63;;;;;;;21.01;49.89;101718.94;5010548;28;20034;-70
2023/05/14 10:12:04;;;;;;;6.15;4.50;;;;;;;20.99;49.83;101715.53;5012837;28;20462;-70
2023/05/14 10:14:37;;;;;;;6.15;4.25;;;;;;;20.95;50.17;101710.59;5008768;28;20050;-68
2023/05/14 10:17:05;;;;;;;6.25;4.03;;;;;;;20.93;50.28;101715.19;5013995;28;20546;-68
2023/05/14 10:19:34;;;;;;;6.55;4.30;;;;;;;20.93;50.26;101718.69;5017434;28;20520;-70
2023/05/14 10:22:03;;;;;;;6.60;4.30;;;;;;;20.93;50.49;101720.50;5004607;28;20030;-73
2023/05/14 10:24:29;;;;;;;7.85;4.93;;;;;;;20.92;50.18;101716.16;5004607;28;20389;-69
2023/05/14 10:26:55;;;;;;;9.50;4.60;;;;;;;20.86;50.13;101709.56;5008179;28;20026;-71
2023/05/14 10:29:32;;;;;;;7.32;4.50;;;;;;;20.78;50.74;101711.97;5023504;28;20051;-69
2023/05/14 10:31:57;;;;;;;9.68;4.70;;;;;;;20.80;50.90;101713.50;5009104;28;20505;-70
2023/05/14 10:34:33;;;;;;;6.03;4.93;;;;;;;20.74;51.08;101710.50;5012836;28;20065;-70
2023/05/14 10:37:01;;;;;;;12.93;4.70;;;;;;;20.69;51.32;101705.56;5007939;28;20273;-69
2023/05/14 10:39:44;;;;;;;7.38;4.72;;;;;;;20.69;51.44;101710.03;5009186;28;20029;-72
2023/05/14 10:42:26;;;;;;;6.68;4.30;;;;;;;20.69;51.82;101707.38;5006410;28;20034;-72
2023/05/14 10:44:57;;;;;;;6.63;4.70;;;;;;;20.83;51.01;101701.84;5010892;28;20045;-72
2023/05/14 10:47:25;;;;;;;9.23;6.53;;;;;;;20.87;50.74;101700.66;5013039;28;20167;-71
2023/05/14 10:49:56;;;;;;;8.02;4.80;;;;;;;20.93;50.60;101702.78;5012916;28;20038;-70
2023/05/14 10:52:23;;;;;;;7.43;4.53;;;;;;;20.77;52.24;101694.38;5005998;28;20040;-73
2023/05/14 10:54:58;;;;;;;7.78;5.05;;;;;;;20.73;52.64;101698.22;5013575;28;20034;-70
2023/05/14 10:57:26;;;;;;;7.82;4.55;;;;;;;20.68;52.75;101690.66;5010158;28;20051;-69
2023/05/14 10:59:53;;;;;;;7.70;4.55;;;;;;;20.67;52.89;101688.13;5009187;28;20037;-69
2023/05/14 11:02:37;;;;;;;6.93;4.75;;;;;;;20.65;52.99;101685.59;5003819;28;20080;-72
2023/05/14 11:05:16;;;;;;;9.73;4.97;;;;;;;20.69;52.29;101678.25;5013000;28;20025;-72
2023/05/14 11:07:48;;;;;;;7.50;4.68;;;;;;;20.68;52.14;101680.06;5012131;28;20026;-69
2023/05/14 11:10:17;;;;;;;8.13;4.70;;;;;;;20.73;52.04;101680.53;5006096;28;20037;-72
2023/05/14 11:12:44;;;;;;;7.13;5.00;;;;;;;20.74;51.37;101679.56;5008916;28;20116;-72
2023/05/14 11:15:12;;;;;;;7.50;5.50;;;;;;;20.72;51.15;101676.19;5006209;28;20657;-72
2023/05/14 11:17:40;;;;;;;6.78;5.63;;;;;;;20.68;51.00;101669.47;5006798;28;20042;-73
2023/05/14 11:20:07;;;;;;;6.30;4.80;;;;;;;20.73;51.24;101675.25;5008554;28;20137;-71